createdAt,value
2018-09-20T00:02:27.637Z,14.30
2018-09-20T00:04:56.372Z,14.30
2018-09-20T00:07:25.049Z,14.30
2018-09-20T00:09:53.820Z,14.20
2018-09-20T00:12:22.644Z,14.20
2018-09-20T00:14:51.072Z,14.30
2018-09-20T00:17:19.614Z,14.30
2018-09-20T00:19:48.484Z,14.30
2018-09-20T00:22:16.987Z,14.30
2018-09-20T00:24:45.465Z,14.30
2018-09-20T00:27:13.874Z,14.30
2018-09-20T00:29:42.295Z,14.30
2018-09-20T00:32:11.329Z,14.20
2018-09-20T00:34:40.084Z,14.20
2018-09-20T00:37:08.973Z,14.20
2018-09-20T00:39:37.807Z,14.10
2018-09-20T00:42:06.503Z,14.10
2018-09-20T00:44:35.805Z,14.10
2018-09-20T00:47:04.276Z,14.00
2018-09-20T00:49:33.084Z,14.00
2018-09-20T00:52:01.578Z,13.90
2018-09-20T00:54:30.069Z,13.90
2018-09-20T00:56:59.643Z,13.90
2018-09-20T00:59:28.445Z,13.90
2018-09-20T01:01:57.136Z,13.90
2018-09-20T01:04:25.524Z,13.90
2018-09-20T01:06:54.586Z,13.90
2018-09-20T01:09:23.188Z,13.90
2018-09-20T01:11:51.711Z,13.90
2018-09-20T01:14:20.441Z,13.90
2018-09-20T01:16:49.181Z,13.90
2018-09-20T01:19:17.937Z,13.80
2018-09-20T01:21:46.337Z,13.80
2018-09-20T01:24:14.781Z,13.80
2018-09-20T01:26:43.213Z,13.80
2018-09-20T01:29:11.592Z,13.70
2018-09-20T01:31:40.409Z,13.70
2018-09-20T01:34:08.837Z,13.70
2018-09-20T01:36:37.420Z,13.70
2018-09-20T01:39:10.360Z,13.70
2018-09-20T01:41:38.814Z,13.70
2018-09-20T01:44:07.491Z,13.70
2018-09-20T01:46:36.187Z,13.60
2018-09-20T01:49:04.833Z,13.60
2018-09-20T01:51:33.538Z,13.60
2018-09-20T01:54:02.464Z,13.60
2018-09-20T01:56:31.080Z,13.60
2018-09-20T01:59:00.164Z,13.50
2018-09-20T02:01:28.550Z,13.50
2018-09-20T02:04:28.160Z,13.50
2018-09-20T02:06:56.608Z,13.50
2018-09-20T02:09:25.269Z,13.60
2018-09-20T02:11:53.666Z,13.50
2018-09-20T02:14:22.158Z,13.50
2018-09-20T02:16:51.121Z,13.50
2018-09-20T02:19:19.501Z,13.60
2018-09-20T02:21:48.727Z,13.50
2018-09-20T02:24:17.135Z,13.50
2018-09-20T02:26:45.557Z,13.40
2018-09-20T02:29:13.979Z,13.40
2018-09-20T02:31:42.440Z,13.30
2018-09-20T02:34:10.931Z,13.30
2018-09-20T02:36:39.481Z,13.30
2018-09-20T02:39:09.021Z,13.30
2018-09-20T02:41:38.216Z,13.20
2018-09-20T02:44:06.934Z,13.20
2018-09-20T02:46:35.350Z,13.30
2018-09-20T02:49:04.263Z,13.30
2018-09-20T02:51:32.902Z,13.30
2018-09-20T02:54:01.377Z,13.30
2018-09-20T02:56:30.016Z,13.20
2018-09-20T02:58:58.484Z,13.30
2018-09-20T03:01:26.883Z,13.20
2018-09-20T03:03:55.861Z,13.30
2018-09-20T03:06:24.349Z,13.30
2018-09-20T03:08:52.965Z,13.30
2018-09-20T03:11:21.596Z,13.20
2018-09-20T03:13:50.419Z,13.20
2018-09-20T03:16:19.090Z,13.20
2018-09-20T03:18:47.776Z,13.20
2018-09-20T03:21:16.707Z,13.10
2018-09-20T03:23:45.130Z,13.10
2018-09-20T03:26:13.783Z,13.00
2018-09-20T03:28:42.255Z,13.00
2018-09-20T03:31:10.937Z,13.00
2018-09-20T03:33:39.439Z,12.90
2018-09-20T03:36:08.016Z,12.90
2018-09-20T03:38:37.362Z,12.90
2018-09-20T03:41:05.884Z,12.90
2018-09-20T03:43:34.728Z,12.90
2018-09-20T03:46:03.787Z,12.90
2018-09-20T03:48:32.495Z,12.80
2018-09-20T03:51:00.896Z,12.80
2018-09-20T03:53:29.302Z,12.80
2018-09-20T03:55:57.830Z,12.80
2018-09-20T03:58:26.282Z,12.80
2018-09-20T04:00:54.676Z,12.80
2018-09-20T04:03:23.754Z,12.80
2018-09-20T04:05:52.401Z,12.80
2018-09-20T04:08:20.796Z,12.80
2018-09-20T04:10:49.528Z,12.80
2018-09-20T04:13:18.000Z,12.80
2018-09-20T04:15:46.428Z,12.80
2018-09-20T04:18:15.238Z,12.80
2018-09-20T04:20:44.003Z,12.90
2018-09-20T04:23:12.689Z,12.90
2018-09-20T04:25:41.860Z,13.00
2018-09-20T04:28:10.284Z,13.00
2018-09-20T04:30:38.782Z,13.00
2018-09-20T04:33:07.223Z,12.90
2018-09-20T04:35:35.633Z,12.90
2018-09-20T04:38:04.705Z,12.90
2018-09-20T04:40:33.118Z,12.90
2018-09-20T04:43:01.546Z,12.90
2018-09-20T04:45:30.184Z,12.90
2018-09-20T04:47:58.626Z,12.90
2018-09-20T04:50:27.451Z,12.90
2018-09-20T04:52:56.058Z,12.90
2018-09-20T04:55:24.795Z,13.00
2018-09-20T04:57:53.469Z,12.90
2018-09-20T05:00:21.961Z,12.90
2018-09-20T05:02:50.480Z,12.90
2018-09-20T05:05:19.306Z,12.90
2018-09-20T05:07:48.328Z,12.90
2018-09-20T05:10:16.902Z,12.90
2018-09-20T05:12:45.914Z,12.90
2018-09-20T05:15:14.347Z,13.00
2018-09-20T05:17:42.852Z,13.00
2018-09-20T05:20:11.317Z,12.90
2018-09-20T05:22:40.125Z,13.00
2018-09-20T05:25:08.917Z,13.00
2018-09-20T05:27:37.914Z,13.00
2018-09-20T05:30:07.102Z,13.10
2018-09-20T05:32:35.886Z,13.20
2018-09-20T05:35:04.871Z,13.20
2018-09-20T05:37:33.965Z,13.30
2018-09-20T05:40:02.551Z,13.30
2018-09-20T05:42:32.097Z,13.30
2018-09-20T05:45:00.908Z,13.40
2018-09-20T05:47:29.703Z,13.40
2018-09-20T05:49:58.545Z,13.50
2018-09-20T05:52:27.026Z,13.50
2018-09-20T05:54:55.656Z,13.70
2018-09-20T05:57:24.227Z,14.00
2018-09-20T05:59:53.384Z,14.30
2018-09-20T06:02:22.756Z,14.70
2018-09-20T06:04:51.338Z,15.00
2018-09-20T06:07:20.095Z,15.20
2018-09-20T06:09:48.552Z,15.20
2018-09-20T06:12:17.424Z,15.30
2018-09-20T06:14:46.385Z,15.30
2018-09-20T06:17:15.017Z,15.50
2018-09-20T06:19:43.702Z,15.80
2018-09-20T06:22:12.201Z,16.00
2018-09-20T06:24:40.630Z,16.00
2018-09-20T06:27:09.506Z,16.10
2018-09-20T06:29:38.150Z,16.30
2018-09-20T06:32:07.072Z,16.20
2018-09-20T06:34:36.106Z,16.20
2018-09-20T06:37:04.595Z,16.10
2018-09-20T06:39:33.066Z,16.10
2018-09-20T06:42:01.634Z,16.10
2018-09-20T06:44:30.169Z,16.10
2018-09-20T06:46:58.653Z,16.20
2018-09-20T06:49:27.272Z,16.60
2018-09-20T06:51:56.312Z,17.00
2018-09-20T06:54:24.909Z,17.40
2018-09-20T06:56:53.460Z,17.70
2018-09-20T06:59:21.925Z,18.10
2018-09-20T07:01:50.618Z,18.50
2018-09-20T07:04:19.488Z,18.90
2018-09-20T07:06:48.178Z,19.50
2018-09-20T07:09:17.082Z,20.20
2018-09-20T07:11:45.527Z,20.90
2018-09-20T07:14:14.303Z,21.50
2018-09-20T07:16:42.821Z,22.60
2018-09-20T07:19:11.385Z,23.40
2018-09-20T07:21:39.950Z,24.00
2018-09-20T07:24:08.718Z,25.60
2018-09-20T07:26:37.133Z,26.00
2018-09-20T07:29:06.045Z,27.00
2018-09-20T07:31:34.779Z,27.30
2018-09-20T07:34:03.215Z,28.20
2018-09-20T07:36:31.652Z,28.60
2018-09-20T07:39:00.593Z,29.40
2018-09-20T07:41:29.088Z,29.50
2018-09-20T07:43:57.593Z,30.00
2018-09-20T07:46:26.233Z,30.80
2018-09-20T07:48:55.068Z,30.20
2018-09-20T07:51:23.573Z,30.00
2018-09-20T07:53:52.070Z,30.00
2018-09-20T07:56:20.976Z,29.80
2018-09-20T07:58:49.666Z,30.40
2018-09-20T08:01:18.548Z,31.10
2018-09-20T08:03:47.063Z,31.40
2018-09-20T08:06:15.723Z,31.20
2018-09-20T08:08:44.240Z,30.90
2018-09-20T08:11:13.413Z,30.60
2018-09-20T08:13:42.614Z,30.90
2018-09-20T08:16:11.368Z,31.30
2018-09-20T08:18:40.083Z,31.60
2018-09-20T08:21:09.050Z,32.00
2018-09-20T08:23:37.893Z,32.30
2018-09-20T08:26:06.769Z,31.80
2018-09-20T08:28:35.418Z,31.90
2018-09-20T08:31:04.201Z,32.00
2018-09-20T08:33:32.685Z,32.30
2018-09-20T08:36:01.786Z,32.70
2018-09-20T08:38:30.350Z,32.40
2018-09-20T08:40:59.026Z,32.80
2018-09-20T08:43:27.430Z,32.40
2018-09-20T08:45:56.122Z,33.00
2018-09-20T08:48:25.449Z,33.00
2018-09-20T08:50:54.266Z,33.30
2018-09-20T08:53:23.144Z,33.40
2018-09-20T08:55:51.843Z,33.70
2018-09-20T08:58:20.291Z,33.50
2018-09-20T09:00:48.777Z,33.70
2018-09-20T09:03:17.597Z,33.80
2018-09-20T09:05:46.172Z,34.40
2018-09-20T09:08:14.852Z,34.00
2018-09-20T09:10:43.472Z,34.10
2018-09-20T09:13:12.065Z,33.80
2018-09-20T09:15:40.458Z,33.80
2018-09-20T09:18:08.877Z,33.70
2018-09-20T09:20:37.424Z,33.90
2018-09-20T09:23:06.448Z,34.00
2018-09-20T09:25:34.973Z,33.80
2018-09-20T09:28:03.592Z,33.90
2018-09-20T09:30:32.795Z,33.90
2018-09-20T09:33:01.345Z,33.90
2018-09-20T09:35:30.684Z,34.20
2018-09-20T09:37:59.181Z,34.00
2018-09-20T09:40:27.941Z,34.80
2018-09-20T09:42:56.490Z,34.80
2018-09-20T09:45:25.632Z,34.60
2018-09-20T09:47:54.192Z,34.10
2018-09-20T09:50:22.643Z,34.00
2018-09-20T09:52:51.771Z,34.20
2018-09-20T09:55:20.601Z,34.00
2018-09-20T09:57:52.943Z,34.10
2018-09-20T10:00:26.906Z,34.40
2018-09-20T10:02:56.833Z,34.20
2018-09-20T10:05:25.644Z,34.30
2018-09-20T10:10:50.242Z,34.60
2018-09-20T10:13:18.665Z,34.80
2018-09-20T10:15:47.037Z,34.70
2018-09-20T10:18:15.802Z,34.10
2018-09-20T10:20:44.229Z,34.00
2018-09-20T10:23:13.009Z,34.00
2018-09-20T10:25:41.472Z,34.30
2018-09-20T10:28:10.243Z,33.90
2018-09-20T10:30:38.904Z,34.00
2018-09-20T10:33:07.317Z,34.10
2018-09-20T10:35:37.046Z,34.40
2018-09-20T10:38:05.588Z,34.30
2018-09-20T10:40:34.644Z,34.40
2018-09-20T10:43:03.292Z,34.60
2018-09-20T10:45:31.791Z,34.80
2018-09-20T10:48:00.184Z,34.70
2018-09-20T10:50:28.616Z,34.90
2018-09-20T10:52:57.580Z,34.50
2018-09-20T10:55:25.948Z,33.80
2018-09-20T10:57:54.422Z,33.90
2018-09-20T11:00:22.860Z,33.80
2018-09-20T11:02:51.504Z,33.80
2018-09-20T11:05:19.933Z,33.60
2018-09-20T11:07:48.854Z,33.10
2018-09-20T11:10:17.291Z,32.80
2018-09-20T11:12:45.662Z,32.30
2018-09-20T11:15:14.650Z,31.90
2018-09-20T11:17:44.635Z,31.50
2018-09-20T11:20:13.354Z,31.50
2018-09-20T11:22:41.759Z,31.20
2018-09-20T11:25:10.281Z,31.00
2018-09-20T11:27:38.791Z,30.70
2018-09-20T11:30:07.664Z,30.50
2018-09-20T11:32:36.647Z,30.60
2018-09-20T11:35:05.088Z,30.40
2018-09-20T11:37:33.898Z,30.00
2018-09-20T11:40:03.045Z,30.00
2018-09-20T11:42:31.655Z,29.80
2018-09-20T11:45:00.068Z,29.60
2018-09-20T11:47:28.760Z,29.50
2018-09-20T11:49:57.879Z,29.20
2018-09-20T11:52:26.542Z,29.10
2018-09-20T11:54:55.181Z,29.30
2018-09-20T11:57:23.724Z,29.30
2018-09-20T11:59:52.132Z,29.10
2018-09-20T12:02:20.857Z,29.00
2018-09-20T12:04:49.539Z,29.10
2018-09-20T12:07:17.982Z,28.80
2018-09-20T12:09:46.964Z,28.80
2018-09-20T12:12:15.418Z,28.70
2018-09-20T12:14:43.946Z,28.80
2018-09-20T12:17:12.615Z,28.90
2018-09-20T12:19:41.221Z,28.90
2018-09-20T12:22:09.757Z,29.00
2018-09-20T12:24:38.737Z,28.80
2018-09-20T12:27:07.316Z,28.80
2018-09-20T12:29:35.969Z,28.60
2018-09-20T12:32:04.469Z,28.70
2018-09-20T12:34:33.733Z,28.70
2018-09-20T12:37:02.320Z,28.70
2018-09-20T12:39:30.758Z,28.50
2018-09-20T12:41:59.182Z,28.10
2018-09-20T12:44:27.637Z,28.10
2018-09-20T12:46:56.629Z,28.10
2018-09-20T12:49:25.097Z,28.20
2018-09-20T12:51:54.409Z,28.50
2018-09-20T12:54:22.917Z,28.50
2018-09-20T12:56:51.373Z,28.70
2018-09-20T12:59:20.373Z,28.50
2018-09-20T13:01:49.134Z,28.40
2018-09-20T13:04:17.809Z,28.60
2018-09-20T13:06:46.528Z,28.60
2018-09-20T13:09:15.489Z,28.20
2018-09-20T13:11:44.643Z,28.10
2018-09-20T13:14:13.175Z,28.10
2018-09-20T13:16:41.804Z,27.60
2018-09-20T13:19:10.431Z,27.70
2018-09-20T13:21:38.886Z,27.40
2018-09-20T13:24:08.268Z,27.60
2018-09-20T13:26:36.740Z,27.60
2018-09-20T13:29:05.429Z,27.70
2018-09-20T13:31:34.322Z,27.60
2018-09-20T13:34:02.814Z,27.70
2018-09-20T13:36:31.455Z,27.70
2018-09-20T13:39:00.033Z,27.70
2018-09-20T13:41:28.879Z,27.70
2018-09-20T13:43:57.732Z,27.80
2018-09-20T13:46:26.436Z,27.90
2018-09-20T13:48:55.116Z,27.90
2018-09-20T13:51:23.744Z,27.90
2018-09-20T13:53:53.096Z,27.90
2018-09-20T13:56:21.861Z,27.80
2018-09-20T13:58:50.327Z,27.70
2018-09-20T14:01:19.344Z,27.60
2018-09-20T14:03:48.107Z,27.60
2018-09-20T14:06:17.158Z,27.60
2018-09-20T14:08:46.832Z,27.50
2018-09-20T14:11:15.572Z,27.30
2018-09-20T14:13:44.047Z,27.30
2018-09-20T14:16:13.223Z,27.30
2018-09-20T14:18:42.161Z,27.30
2018-09-20T14:21:10.651Z,27.30
2018-09-20T14:23:39.118Z,27.40
2018-09-20T14:26:07.727Z,27.40
2018-09-20T14:28:36.165Z,27.50
2018-09-20T14:31:04.626Z,27.50
2018-09-20T14:33:33.312Z,27.50
2018-09-20T14:36:02.496Z,27.30
2018-09-20T14:38:30.942Z,27.20
2018-09-20T14:40:59.473Z,27.00
2018-09-20T14:43:28.010Z,27.00
2018-09-20T14:45:57.007Z,27.10
2018-09-20T14:48:25.680Z,27.10
2018-09-20T14:50:54.811Z,27.10
2018-09-20T14:53:23.555Z,27.20
2018-09-20T14:55:51.974Z,27.10
2018-09-20T14:58:20.812Z,27.10
2018-09-20T15:00:49.730Z,27.10
2018-09-20T15:03:18.395Z,27.20
2018-09-20T15:05:47.571Z,27.20
2018-09-20T15:08:16.434Z,27.20
2018-09-20T15:10:45.108Z,27.10
2018-09-20T15:13:14.164Z,27.20
2018-09-20T15:15:43.439Z,27.10
2018-09-20T15:18:11.826Z,27.00
2018-09-20T15:20:40.291Z,27.00
2018-09-20T15:23:09.157Z,27.00
2018-09-20T15:25:37.738Z,27.20
2018-09-20T15:28:06.152Z,27.20
2018-09-20T15:30:34.967Z,27.10
2018-09-20T15:33:03.820Z,27.10
2018-09-20T15:35:32.919Z,27.00
2018-09-20T15:38:01.376Z,26.90
2018-09-20T15:40:29.989Z,26.70
2018-09-20T15:42:59.154Z,26.70
2018-09-20T15:45:27.924Z,26.60
2018-09-20T15:47:56.843Z,26.30
2018-09-20T15:50:25.988Z,26.20
2018-09-20T15:52:54.487Z,26.20
2018-09-20T15:55:23.001Z,26.00
2018-09-20T15:57:51.411Z,25.90
2018-09-20T16:00:19.923Z,25.80
2018-09-20T16:02:48.646Z,25.80
2018-09-20T16:05:17.663Z,25.60
2018-09-20T16:07:46.502Z,25.60
2018-09-20T16:10:14.908Z,25.40
2018-09-20T16:12:43.571Z,25.30
2018-09-20T16:15:12.708Z,25.30
2018-09-20T16:17:41.433Z,25.30
2018-09-20T16:20:10.248Z,25.10
2018-09-20T16:22:38.820Z,25.00
2018-09-20T16:25:07.908Z,24.90
2018-09-20T16:27:37.000Z,24.80
2018-09-20T16:30:34.834Z,24.80
2018-09-20T16:35:29.416Z,24.60
2018-09-20T16:39:03.446Z,24.60
2018-09-20T16:41:38.366Z,24.40
2018-09-20T16:44:07.171Z,24.30
2018-09-20T16:46:36.121Z,24.20
2018-09-20T16:49:04.642Z,24.10
2018-09-20T16:51:33.272Z,24.00
2018-09-20T16:54:02.030Z,23.80
2018-09-20T16:56:30.639Z,23.80
2018-09-20T16:58:59.120Z,23.70
2018-09-20T17:01:27.716Z,23.60
2018-09-20T17:03:56.839Z,23.50
2018-09-20T17:06:25.624Z,23.30
2018-09-20T17:08:54.395Z,23.20
2018-09-20T17:11:22.858Z,23.10
2018-09-20T17:13:51.890Z,23.00
2018-09-20T17:16:20.372Z,22.80
2018-09-20T17:18:48.922Z,22.70
2018-09-20T17:21:17.583Z,22.50
2018-09-20T17:23:46.229Z,22.40
2018-09-20T17:26:15.458Z,22.20
2018-09-20T17:28:43.918Z,22.10
2018-09-20T17:31:13.121Z,22.00
2018-09-20T17:33:41.578Z,21.80
2018-09-20T17:36:10.414Z,21.70
2018-09-20T17:38:40.616Z,21.50
2018-09-20T17:41:15.433Z,21.40
2018-09-20T17:43:49.292Z,21.30
2018-09-20T17:46:18.956Z,21.10
2018-09-20T17:48:47.830Z,21.10
2018-09-20T17:51:17.128Z,20.90
2018-09-20T17:53:46.311Z,20.80
2018-09-20T17:56:15.892Z,20.80
2018-09-20T17:58:45.610Z,20.70
2018-09-20T18:01:14.200Z,20.60
2018-09-20T18:03:42.673Z,20.50
2018-09-20T18:06:11.454Z,20.50
2018-09-20T18:08:39.916Z,20.30
2018-09-20T18:11:08.428Z,20.20
2018-09-20T18:13:37.581Z,20.10
2018-09-20T18:16:06.073Z,20.00
2018-09-20T18:18:35.172Z,19.90
2018-09-20T18:21:03.989Z,19.80
2018-09-20T18:23:32.582Z,19.80
2018-09-20T18:26:01.691Z,19.70
2018-09-20T18:28:30.253Z,19.70
2018-09-20T18:30:58.733Z,19.60
2018-09-20T18:33:27.338Z,19.40
2018-09-20T18:35:55.804Z,19.30
2018-09-20T18:38:24.379Z,19.20
2018-09-20T18:40:53.317Z,19.10
2018-09-20T18:43:21.826Z,19.00
2018-09-20T18:45:50.359Z,18.90
2018-09-20T18:48:18.857Z,18.80
2018-09-20T18:50:47.662Z,18.80
2018-09-20T18:53:16.139Z,18.70
2018-09-20T18:55:44.729Z,18.60
2018-09-20T18:58:13.559Z,18.50
2018-09-20T19:00:42.055Z,18.50
2018-09-20T19:03:10.568Z,18.40
2018-09-20T19:05:39.821Z,18.30
2018-09-20T19:08:08.411Z,18.30
2018-09-20T19:10:37.109Z,18.20
2018-09-20T19:13:05.711Z,18.20
2018-09-20T19:15:35.193Z,18.10
2018-09-20T19:18:03.905Z,18.00
2018-09-20T19:20:32.639Z,18.00
2018-09-20T19:23:01.361Z,17.90
2018-09-20T19:25:30.234Z,17.90
2018-09-20T19:27:58.864Z,17.80
2018-09-20T19:30:27.383Z,17.80
2018-09-20T19:32:56.228Z,17.70
2018-09-20T19:35:24.790Z,17.70
2018-09-20T19:37:53.802Z,17.60
2018-09-20T19:40:22.451Z,17.60
2018-09-20T19:42:51.235Z,17.50
2018-09-20T19:45:20.254Z,17.50
2018-09-20T19:47:48.920Z,17.50
2018-09-20T19:50:17.436Z,17.40
2018-09-20T19:52:46.546Z,17.40
2018-09-20T19:55:15.242Z,17.30
2018-09-20T19:57:44.512Z,17.30
2018-09-20T20:00:13.069Z,17.30
2018-09-20T20:02:41.581Z,17.20
2018-09-20T20:05:10.798Z,17.20
2018-09-20T20:07:39.485Z,17.10
2018-09-20T20:10:08.378Z,17.10
2018-09-20T20:12:36.947Z,17.00
2018-09-20T20:15:05.763Z,17.00
2018-09-20T20:17:34.714Z,16.90
2018-09-20T20:20:03.235Z,16.90
2018-09-20T20:22:31.719Z,16.70
2018-09-20T20:25:00.451Z,16.60
2018-09-20T20:27:29.129Z,16.60
2018-09-20T20:29:57.694Z,16.50
2018-09-20T20:32:27.976Z,16.40
2018-09-20T20:34:56.847Z,16.40
2018-09-20T20:37:25.752Z,16.30
2018-09-20T20:39:55.959Z,16.30
2018-09-20T20:42:24.519Z,16.20
2018-09-20T20:44:53.673Z,16.20
2018-09-20T20:47:22.210Z,16.10
2018-09-20T20:49:51.019Z,16.10
2018-09-20T20:52:20.162Z,16.10
2018-09-20T20:54:48.966Z,16.10
2018-09-20T20:57:17.658Z,16.00
2018-09-20T20:59:46.221Z,16.10
2018-09-20T21:02:15.745Z,16.00
2018-09-20T21:04:44.751Z,16.00
2018-09-20T21:07:13.299Z,15.90
2018-09-20T21:09:42.328Z,15.90
2018-09-20T21:12:10.811Z,15.90
2018-09-20T21:14:39.416Z,15.90
2018-09-20T21:17:08.116Z,15.80
2018-09-20T21:19:36.604Z,15.80
2018-09-20T21:22:06.028Z,15.70
2018-09-20T21:24:34.499Z,15.60
2018-09-20T21:27:03.315Z,15.60
2018-09-20T21:29:31.980Z,15.50
2018-09-20T21:32:00.672Z,15.50
2018-09-20T21:34:29.479Z,15.50
2018-09-20T21:36:58.306Z,15.40
2018-09-20T21:39:27.478Z,15.40
2018-09-20T21:41:55.988Z,15.40
2018-09-20T21:44:24.629Z,15.30
2018-09-20T21:46:53.349Z,15.30
2018-09-20T21:49:21.883Z,15.20
2018-09-20T21:51:50.879Z,15.10
2018-09-20T21:54:19.500Z,15.00
2018-09-20T21:56:48.136Z,15.00
2018-09-20T21:59:17.072Z,15.00
2018-09-20T22:01:50.708Z,15.00
2018-09-20T22:04:19.965Z,14.90
2018-09-20T22:06:48.683Z,14.90
2018-09-20T22:09:17.573Z,14.90
2018-09-20T22:11:46.102Z,15.00
2018-09-20T22:14:15.154Z,15.00
2018-09-20T22:16:43.736Z,15.00
2018-09-20T22:19:12.271Z,15.10
2018-09-20T22:21:41.048Z,15.10
2018-09-20T22:24:09.467Z,15.10
2018-09-20T22:26:38.203Z,15.00
2018-09-20T22:29:06.710Z,15.00
2018-09-20T22:31:35.428Z,15.00
2018-09-20T22:34:03.890Z,14.90
2018-09-20T22:36:32.671Z,14.80
2018-09-20T22:39:01.743Z,14.70
2018-09-20T22:41:30.440Z,14.70
2018-09-20T22:43:59.245Z,14.60
2018-09-20T22:46:27.902Z,14.60
2018-09-20T22:48:56.831Z,14.60
2018-09-20T22:51:25.526Z,14.50
2018-09-20T22:53:54.157Z,14.50
2018-09-20T22:56:22.799Z,14.40
2018-09-20T22:58:51.275Z,14.40
2018-09-20T23:01:19.757Z,14.30
2018-09-20T23:03:48.309Z,14.30
2018-09-20T23:06:17.328Z,14.30
2018-09-20T23:08:45.762Z,14.30
2018-09-20T23:11:14.889Z,14.30
2018-09-20T23:13:43.298Z,14.30
2018-09-20T23:16:12.581Z,14.40
2018-09-20T23:18:41.074Z,14.30
2018-09-20T23:21:09.563Z,14.30
2018-09-20T23:23:38.620Z,14.30
2018-09-20T23:26:07.704Z,14.20
2018-09-20T23:28:36.224Z,14.10
2018-09-20T23:31:04.744Z,14.10
2018-09-20T23:33:33.191Z,14.00
2018-09-20T23:36:01.995Z,14.00
2018-09-20T23:38:30.525Z,13.90
2018-09-20T23:40:59.114Z,14.00
2018-09-20T23:43:27.605Z,13.90
2018-09-20T23:45:56.234Z,13.90
2018-09-20T23:48:25.303Z,13.90
2018-09-20T23:50:53.896Z,13.90
2018-09-20T23:53:22.874Z,13.90
2018-09-20T23:55:51.307Z,13.90
2018-09-20T23:58:20.260Z,13.80
